createdAt,value
2022-08-04T17:18:29.802Z,2.85
2022-08-04T17:21:27.266Z,2.50
2022-08-04T17:24:17.822Z,2.63
2022-08-04T17:28:08.572Z,2.70
2022-08-04T17:30:27.588Z,2.78
2022-08-04T17:33:15.679Z,2.90
2022-08-04T17:36:04.107Z,2.70
2022-08-04T17:38:55.428Z,3.00
2022-08-04T17:41:42.532Z,3.38
2022-08-04T17:44:37.477Z,3.15
2022-08-04T17:47:24.739Z,2.83
2022-08-04T17:50:11.886Z,3.20
2022-08-04T17:52:59.915Z,2.92
2022-08-04T17:55:49.352Z,3.15
2022-08-04T17:58:36.652Z,3.25
2022-08-04T18:01:25.309Z,3.22
2022-08-04T18:04:30.720Z,3.35
2022-08-04T18:08:34.730Z,3.28
2022-08-04T18:10:52.216Z,3.50
2022-08-04T18:16:30.442Z,3.55
2022-08-04T18:19:19.021Z,3.58
2022-08-04T18:22:08.159Z,3.78
2022-08-04T18:25:04.247Z,3.60
2022-08-04T18:27:53.952Z,3.03
2022-08-04T18:30:54.868Z,3.08
2022-08-04T18:33:43.002Z,3.38
2022-08-04T18:36:44.767Z,3.42
2022-08-04T18:40:17.384Z,3.30
2022-08-04T18:42:51.362Z,3.50
2022-08-04T18:45:38.858Z,3.03
2022-08-04T18:48:37.426Z,3.85
2022-08-04T18:51:30.675Z,3.22
2022-08-04T18:54:18.123Z,2.90
2022-08-04T18:57:24.594Z,3.42
2022-08-04T19:00:19.734Z,3.22
2022-08-04T19:05:48.590Z,3.22
2022-08-04T19:08:42.280Z,3.75
2022-08-04T19:14:36.965Z,3.10
2022-08-04T19:17:52.771Z,3.13
2022-08-04T19:20:30.876Z,3.55
2022-08-04T19:24:28.821Z,3.38
2022-08-04T19:26:27.726Z,3.50
2022-08-04T19:29:15.091Z,3.22
2022-08-04T19:32:01.923Z,3.83
2022-08-04T19:38:01.350Z,3.28
2022-08-04T19:40:52.563Z,3.72
2022-08-04T19:43:43.948Z,3.60
2022-08-04T19:46:31.387Z,3.17
2022-08-04T19:50:03.067Z,3.30
2022-08-04T19:52:33.880Z,3.38
2022-08-04T19:55:36.591Z,2.92
2022-08-04T19:58:26.204Z,3.03
2022-08-04T20:01:22.800Z,2.95
2022-08-04T20:04:19.580Z,3.17
2022-08-04T20:07:09.846Z,3.20
2022-08-04T20:10:04.330Z,2.90
2022-08-04T20:12:55.772Z,3.00
2022-08-04T20:15:55.541Z,3.03
2022-08-04T20:18:56.819Z,2.88
2022-08-04T20:21:55.425Z,3.00
2022-08-04T20:24:49.259Z,3.03
2022-08-04T20:27:59.523Z,3.05
2022-08-04T20:30:47.652Z,3.15
2022-08-04T20:33:35.819Z,3.00
2022-08-04T20:36:23.725Z,2.78
2022-08-04T20:39:11.069Z,3.00
2022-08-04T20:42:02.614Z,3.10
2022-08-04T20:44:49.555Z,2.80
2022-08-04T20:47:36.521Z,3.00
2022-08-04T20:50:30.180Z,2.90
2022-08-04T20:53:17.733Z,2.75
2022-08-04T20:56:04.747Z,3.35
2022-08-04T20:58:53.552Z,2.65
2022-08-04T21:01:40.467Z,2.80
2022-08-04T21:04:32.775Z,3.10
2022-08-04T21:07:19.985Z,2.60
2022-08-04T21:10:06.994Z,2.53
2022-08-04T21:12:54.107Z,2.85
2022-08-04T21:15:58.669Z,2.60
2022-08-04T21:18:46.311Z,2.80
2022-08-04T21:21:36.204Z,2.70
2022-08-04T21:24:25.916Z,2.70
2022-08-04T21:27:13.492Z,2.65
2022-08-04T21:30:00.919Z,2.53
2022-08-04T21:32:47.878Z,2.72
2022-08-04T21:35:39.129Z,2.67
2022-08-04T21:38:28.305Z,2.88
2022-08-04T21:44:22.832Z,2.83
2022-08-04T21:47:22.424Z,2.60
2022-08-04T21:50:10.522Z,2.65
2022-08-04T21:52:57.387Z,2.95
2022-08-04T21:56:05.057Z,2.60
2022-08-04T21:58:52.701Z,2.63
2022-08-04T22:01:51.571Z,3.10
2022-08-04T22:04:39.410Z,2.88
2022-08-04T22:07:50.333Z,2.70
2022-08-04T22:10:33.330Z,2.72
2022-08-04T22:16:27.364Z,2.85
2022-08-04T22:19:14.225Z,2.70
2022-08-04T22:22:13.562Z,2.67
2022-08-04T22:28:02.671Z,2.72
2022-08-04T22:33:54.408Z,2.78
2022-08-04T22:36:42.447Z,2.50
2022-08-04T22:39:29.954Z,2.85
2022-08-04T22:42:16.791Z,2.50
2022-08-04T22:45:03.917Z,2.88
2022-08-04T22:47:54.898Z,2.25
2022-08-04T22:50:41.856Z,2.67
2022-08-04T22:53:30.170Z,2.80
2022-08-04T22:56:38.497Z,2.80
2022-08-04T22:59:25.988Z,2.90
2022-08-04T23:02:14.702Z,2.80
2022-08-04T23:05:01.770Z,2.70
2022-08-04T23:07:51.334Z,2.55
2022-08-04T23:10:43.774Z,2.50
2022-08-04T23:13:31.947Z,2.45
2022-08-04T23:16:19.202Z,2.20
2022-08-04T23:19:10.056Z,2.50
2022-08-04T23:22:02.380Z,2.42
2022-08-04T23:24:49.465Z,2.65
2022-08-04T23:27:40.292Z,2.33
2022-08-04T23:30:30.799Z,2.05
2022-08-04T23:33:17.611Z,2.55
2022-08-04T23:36:05.063Z,2.42
2022-08-04T23:38:51.865Z,2.25
2022-08-04T23:41:55.430Z,2.10
2022-08-04T23:44:44.394Z,2.28
2022-08-04T23:48:16.032Z,2.15
2022-08-04T23:50:39.779Z,2.30
2022-08-04T23:53:26.987Z,2.40
2022-08-04T23:56:19.425Z,2.03
2022-08-04T23:59:17.639Z,2.25
